createdAt,value
2023-03-07T00:01:27.461Z,5.15
2023-03-07T00:03:55.203Z,4.75
2023-03-07T00:06:22.021Z,6.28
2023-03-07T00:08:54.001Z,4.00
2023-03-07T00:11:20.852Z,4.83
2023-03-07T00:13:47.605Z,4.80
2023-03-07T00:16:18.956Z,5.55
2023-03-07T00:18:46.062Z,5.80
2023-03-07T00:21:17.382Z,4.80
2023-03-07T00:23:45.682Z,4.25
2023-03-07T00:26:16.393Z,5.68
2023-03-07T00:28:43.782Z,4.57
2023-03-07T00:31:11.794Z,4.80
2023-03-07T00:33:39.610Z,5.35
2023-03-07T00:36:24.508Z,5.70
2023-03-07T00:38:52.124Z,5.82
2023-03-07T00:41:22.793Z,5.70
2023-03-07T00:43:49.984Z,4.68
2023-03-07T00:46:19.343Z,5.75
2023-03-07T00:48:46.777Z,5.10
2023-03-07T00:51:16.544Z,5.60
2023-03-07T00:53:44.024Z,6.70
2023-03-07T00:56:25.232Z,4.28
2023-03-07T00:58:52.849Z,4.70
2023-03-07T01:01:23.550Z,4.80
2023-03-07T01:03:53.752Z,4.30
2023-03-07T01:06:25.011Z,5.57
2023-03-07T01:08:51.811Z,4.50
2023-03-07T01:11:18.664Z,4.50
2023-03-07T01:13:45.756Z,6.22
2023-03-07T01:16:18.643Z,4.47
2023-03-07T01:21:19.727Z,5.68
2023-03-07T01:23:47.018Z,4.35
2023-03-07T01:26:20.122Z,5.38
2023-03-07T01:28:47.542Z,4.00
2023-03-07T01:31:14.566Z,4.78
2023-03-07T01:33:41.695Z,4.57
2023-03-07T01:36:28.409Z,4.43
2023-03-07T01:38:58.348Z,4.53
2023-03-07T01:41:25.312Z,6.13
2023-03-07T01:43:52.096Z,4.25
2023-03-07T01:46:18.793Z,4.65
2023-03-07T01:49:03.907Z,4.47
2023-03-07T01:51:33.232Z,5.03
2023-03-07T01:54:01.896Z,4.18
2023-03-07T01:56:29.416Z,5.60
2023-03-07T01:58:56.565Z,5.00
2023-03-07T02:01:26.381Z,5.40
2023-03-07T02:04:06.532Z,4.85
2023-03-07T02:06:37.818Z,6.90
2023-03-07T02:09:13.395Z,5.85
2023-03-07T02:11:44.685Z,6.20
2023-03-07T02:14:11.441Z,4.93
2023-03-07T02:16:38.934Z,6.00
2023-03-07T02:19:33.432Z,5.10
2023-03-07T02:22:17.514Z,3.53
2023-03-07T02:24:57.196Z,4.90
2023-03-07T02:27:26.082Z,4.65
2023-03-07T02:29:53.313Z,5.95
2023-03-07T02:32:20.567Z,5.55
2023-03-07T02:34:47.325Z,4.22
2023-03-07T02:37:21.938Z,5.38
2023-03-07T02:39:48.997Z,4.85
2023-03-07T02:42:22.601Z,4.82
2023-03-07T02:45:00.449Z,4.50
2023-03-07T02:47:28.138Z,4.63
2023-03-07T02:49:55.162Z,3.38
2023-03-07T02:52:23.047Z,5.38
2023-03-07T02:54:49.814Z,4.25
2023-03-07T02:57:16.599Z,4.40
2023-03-07T02:59:43.379Z,4.78
2023-03-07T03:02:10.129Z,5.28
2023-03-07T03:04:36.900Z,5.28
2023-03-07T03:07:03.802Z,3.83
2023-03-07T03:09:31.588Z,3.30
2023-03-07T03:11:58.482Z,5.38
2023-03-07T03:14:25.605Z,4.55
2023-03-07T03:16:53.712Z,4.22
2023-03-07T03:19:21.043Z,3.95
2023-03-07T03:21:48.784Z,5.28
2023-03-07T03:24:15.707Z,3.88
2023-03-07T03:26:42.528Z,3.47
2023-03-07T03:29:09.883Z,4.15
2023-03-07T03:31:36.774Z,4.88
2023-03-07T03:34:05.731Z,5.18
2023-03-07T03:36:33.142Z,4.95
2023-03-07T03:39:00.505Z,4.43
2023-03-07T03:41:27.662Z,4.13
2023-03-07T03:43:54.518Z,4.10
2023-03-07T03:46:21.402Z,4.65
2023-03-07T03:48:53.473Z,3.88
2023-03-07T03:51:20.853Z,5.30
2023-03-07T03:53:47.676Z,5.00
2023-03-07T03:56:19.068Z,5.03
2023-03-07T03:58:55.392Z,3.55
2023-03-07T04:01:24.862Z,4.50
2023-03-07T04:03:53.311Z,3.78
2023-03-07T04:06:29.372Z,6.15
2023-03-07T04:08:57.244Z,4.43
2023-03-07T04:11:25.226Z,5.38
2023-03-07T04:13:53.213Z,3.08
2023-03-07T04:16:22.485Z,5.30
2023-03-07T04:18:51.112Z,3.85
2023-03-07T04:21:19.094Z,5.88
2023-03-07T04:23:45.823Z,4.45
2023-03-07T04:26:12.731Z,3.78
2023-03-07T04:28:45.291Z,4.35
2023-03-07T04:31:15.065Z,4.13
2023-03-07T04:33:42.427Z,4.82
2023-03-07T04:36:10.504Z,4.43
2023-03-07T04:38:39.183Z,4.35
2023-03-07T04:41:07.347Z,4.20
2023-03-07T04:43:34.708Z,4.53
2023-03-07T04:46:01.838Z,4.32
2023-03-07T04:48:28.710Z,3.75
2023-03-07T04:50:55.470Z,4.30
2023-03-07T04:53:22.562Z,4.10
2023-03-07T04:55:49.341Z,4.72
2023-03-07T04:58:16.494Z,7.10
2023-03-07T05:00:45.306Z,8.32
2023-03-07T05:03:13.717Z,5.22
2023-03-07T05:05:40.671Z,3.92
2023-03-07T05:08:08.089Z,4.75
2023-03-07T05:10:35.506Z,4.50
2023-03-07T05:13:02.330Z,6.50
2023-03-07T05:15:29.248Z,5.72
2023-03-07T05:17:56.381Z,4.68
2023-03-07T05:20:23.639Z,5.30
2023-03-07T05:22:50.797Z,5.07
2023-03-07T05:25:17.850Z,4.78
2023-03-07T05:27:44.732Z,4.65
2023-03-07T05:30:12.767Z,5.65
2023-03-07T05:32:40.322Z,3.35
2023-03-07T05:35:09.608Z,4.85
2023-03-07T05:37:36.549Z,2.22
2023-03-07T05:40:09.212Z,3.38
2023-03-07T05:42:35.947Z,4.95
2023-03-07T05:45:05.941Z,3.00
2023-03-07T05:47:33.008Z,4.35
2023-03-07T05:49:59.729Z,3.85
2023-03-07T05:52:27.551Z,3.92
2023-03-07T05:54:54.380Z,3.83
2023-03-07T05:57:22.897Z,6.30
2023-03-07T05:59:49.692Z,5.63
2023-03-07T06:02:16.510Z,5.72
2023-03-07T06:04:44.296Z,5.38
2023-03-07T06:07:10.999Z,7.15
2023-03-07T06:09:37.746Z,8.05
2023-03-07T06:12:05.000Z,4.40
2023-03-07T06:14:32.967Z,6.00
2023-03-07T06:16:59.697Z,4.97
2023-03-07T06:19:26.592Z,4.93
2023-03-07T06:21:53.316Z,5.78
2023-03-07T06:24:20.053Z,5.70
2023-03-07T06:26:46.843Z,6.18
2023-03-07T06:29:13.806Z,5.00
2023-03-07T06:31:40.685Z,6.55
2023-03-07T06:34:08.637Z,6.35
2023-03-07T06:36:35.473Z,4.53
2023-03-07T06:39:02.272Z,5.38
2023-03-07T06:41:29.048Z,6.07
2023-03-07T06:43:55.923Z,4.80
2023-03-07T06:46:22.675Z,4.85
2023-03-07T06:48:52.100Z,5.47
2023-03-07T06:51:18.950Z,6.05
2023-03-07T06:53:45.795Z,6.47
2023-03-07T06:56:12.567Z,6.18
2023-03-07T06:58:39.338Z,5.50
2023-03-07T07:01:06.094Z,4.60
2023-03-07T07:03:32.865Z,6.13
2023-03-07T07:05:59.628Z,6.05
2023-03-07T07:08:26.386Z,5.85
2023-03-07T07:10:53.157Z,5.63
2023-03-07T07:13:19.892Z,6.18
2023-03-07T07:15:46.628Z,5.07
2023-03-07T07:18:14.164Z,4.40
2023-03-07T07:20:41.034Z,4.00
2023-03-07T07:23:07.803Z,5.28
2023-03-07T07:25:34.593Z,5.72
2023-03-07T07:28:01.350Z,4.60
2023-03-07T07:30:28.109Z,4.72
2023-03-07T07:32:55.011Z,5.05
2023-03-07T07:35:22.402Z,4.63
2023-03-07T07:37:49.161Z,3.85
2023-03-07T07:40:16.137Z,4.32
2023-03-07T07:42:43.530Z,5.20
2023-03-07T07:45:11.292Z,5.38
2023-03-07T07:47:38.100Z,5.68
2023-03-07T07:50:05.661Z,6.68
2023-03-07T07:52:32.366Z,6.45
2023-03-07T07:54:59.124Z,11.13
2023-03-07T07:57:25.874Z,5.80
2023-03-07T07:59:52.641Z,8.43
2023-03-07T08:02:19.401Z,6.38
2023-03-07T08:04:47.432Z,9.40
2023-03-07T08:07:14.651Z,7.30
2023-03-07T08:09:41.379Z,8.88
2023-03-07T08:12:12.621Z,10.18
2023-03-07T08:14:40.585Z,7.90
2023-03-07T08:17:07.456Z,8.52
2023-03-07T08:19:34.215Z,10.15
2023-03-07T08:22:02.317Z,10.07
2023-03-07T08:24:39.919Z,9.65
2023-03-07T08:27:07.142Z,8.48
2023-03-07T08:29:35.319Z,7.18
2023-03-07T08:32:02.129Z,6.18
2023-03-07T08:34:28.890Z,6.07
2023-03-07T08:36:55.667Z,5.63
2023-03-07T08:39:22.476Z,8.32
2023-03-07T08:41:49.201Z,6.80
2023-03-07T08:44:16.004Z,10.77
2023-03-07T08:46:42.808Z,10.13
2023-03-07T08:49:09.617Z,9.82
2023-03-07T08:51:36.406Z,7.38
2023-03-07T08:54:03.150Z,7.80
2023-03-07T08:56:29.882Z,8.63
2023-03-07T08:58:56.610Z,10.88
2023-03-07T09:01:23.475Z,9.20
2023-03-07T09:03:50.296Z,8.02
2023-03-07T09:06:20.391Z,8.63
2023-03-07T09:08:48.308Z,7.70
2023-03-07T09:11:15.707Z,8.05
2023-03-07T09:13:51.476Z,7.13
2023-03-07T09:16:19.248Z,9.93
2023-03-07T09:18:46.030Z,10.98
2023-03-07T09:21:12.791Z,7.60
2023-03-07T09:23:39.557Z,5.82
2023-03-07T09:26:06.664Z,6.38
2023-03-07T09:28:33.408Z,6.18
2023-03-07T09:31:00.473Z,6.20
2023-03-07T09:33:27.533Z,8.40
2023-03-07T09:35:54.436Z,6.55
2023-03-07T09:38:21.195Z,8.75
2023-03-07T09:40:48.821Z,6.57
2023-03-07T09:43:23.052Z,7.45
2023-03-07T09:46:20.346Z,5.97
2023-03-07T09:49:18.242Z,4.78
2023-03-07T09:51:49.475Z,6.75
2023-03-07T09:54:26.074Z,5.40
2023-03-07T09:56:59.414Z,9.10
2023-03-07T09:59:39.986Z,9.80
2023-03-07T10:02:32.132Z,7.28
2023-03-07T10:05:22.577Z,5.18
2023-03-07T10:07:49.675Z,5.40
2023-03-07T10:10:52.399Z,7.90
2023-03-07T10:13:26.368Z,6.07
2023-03-07T10:16:12.149Z,5.63
2023-03-07T10:19:34.436Z,5.20
2023-03-07T10:22:43.807Z,4.93
2023-03-07T10:25:31.706Z,6.28
2023-03-07T10:28:33.336Z,5.10
2023-03-07T10:31:24.686Z,4.68
2023-03-07T10:33:54.680Z,7.78
2023-03-07T10:36:41.581Z,10.63
2023-03-07T10:39:43.917Z,7.32
2023-03-07T10:42:16.688Z,5.78
2023-03-07T10:44:46.241Z,5.38
2023-03-07T10:47:30.993Z,6.05
2023-03-07T10:50:27.356Z,7.75
2023-03-07T10:52:58.055Z,6.70
2023-03-07T10:55:43.321Z,6.00
2023-03-07T10:58:27.106Z,6.72
2023-03-07T11:01:15.809Z,5.40
2023-03-07T11:03:58.802Z,6.30
2023-03-07T15:21:23.566Z,4.90
2023-03-07T15:23:59.071Z,5.05
2023-03-07T15:26:27.854Z,4.28
2023-03-07T15:29:05.593Z,4.68
2023-03-07T15:31:54.055Z,5.22
2023-03-07T15:35:16.514Z,4.45
2023-03-07T15:38:08.180Z,4.32
2023-03-07T15:40:36.773Z,4.72
2023-03-07T15:43:04.479Z,5.07
2023-03-07T15:45:40.464Z,3.78
2023-03-07T15:48:24.752Z,4.40
2023-03-07T15:51:00.458Z,5.20
2023-03-07T15:53:32.044Z,4.18
2023-03-07T15:56:20.383Z,4.93
2023-03-07T15:58:48.008Z,4.10
2023-03-07T16:01:26.802Z,5.28
2023-03-07T16:03:57.797Z,4.60
2023-03-07T16:06:44.783Z,4.75
2023-03-07T16:09:17.991Z,3.70
2023-03-07T16:11:46.401Z,4.72
2023-03-07T16:14:30.449Z,3.92
2023-03-07T16:17:01.349Z,4.60
2023-03-07T16:19:28.848Z,4.22
2023-03-07T16:21:55.698Z,4.53
2023-03-07T16:24:22.518Z,3.78
2023-03-07T16:26:49.621Z,4.75
2023-03-07T16:29:21.730Z,4.53
2023-03-07T16:31:49.038Z,4.93
2023-03-07T16:34:21.981Z,5.00
2023-03-07T16:39:18.120Z,4.53
2023-03-07T16:41:47.879Z,4.28
2023-03-07T16:44:20.405Z,4.45
2023-03-07T16:46:59.073Z,3.72
2023-03-07T16:49:25.875Z,3.63
2023-03-07T16:52:05.151Z,3.95
2023-03-07T16:54:33.329Z,3.53
2023-03-07T16:57:02.055Z,4.10
2023-03-07T16:59:35.390Z,4.55
2023-03-07T17:02:03.378Z,4.15
2023-03-07T17:04:30.217Z,3.92
2023-03-07T17:07:04.394Z,4.32
2023-03-07T17:09:31.476Z,3.80
2023-03-07T17:11:58.482Z,3.92
2023-03-07T17:14:25.361Z,4.63
2023-03-07T17:16:52.119Z,4.75
2023-03-07T17:19:28.297Z,4.97
2023-03-07T17:21:56.146Z,4.45
2023-03-07T17:24:22.902Z,7.95
2023-03-07T17:26:50.292Z,7.93
2023-03-07T17:29:34.605Z,7.40
2023-03-07T17:32:01.422Z,6.00
2023-03-07T17:34:32.124Z,4.80
2023-03-07T17:37:00.380Z,5.35
2023-03-07T17:39:29.777Z,4.65
2023-03-07T17:41:58.202Z,6.05
2023-03-07T17:44:25.276Z,5.05
2023-03-07T17:46:53.537Z,11.88
2023-03-07T17:49:21.583Z,13.90
2023-03-07T17:51:48.974Z,18.90
2023-03-07T17:54:17.088Z,13.73
2023-03-07T17:56:43.896Z,11.85
2023-03-07T17:59:10.690Z,8.73
2023-03-07T18:01:38.129Z,7.15
2023-03-07T18:04:06.534Z,5.55
2023-03-07T18:06:34.173Z,5.00
2023-03-07T18:09:01.804Z,4.57
2023-03-07T18:11:28.706Z,12.10
2023-03-07T18:13:55.900Z,15.35
2023-03-07T18:16:22.783Z,8.95
2023-03-07T18:18:58.735Z,6.88
2023-03-07T18:21:26.639Z,12.18
2023-03-07T18:23:53.607Z,8.43
2023-03-07T18:26:21.693Z,9.80
2023-03-07T18:28:50.086Z,6.43
2023-03-07T18:31:21.541Z,5.55
2023-03-07T18:33:51.114Z,6.38
2023-03-07T18:36:18.557Z,5.78
2023-03-07T18:38:45.542Z,5.90
2023-03-07T18:41:16.117Z,6.07
2023-03-07T18:43:43.427Z,6.15
2023-03-07T18:46:14.351Z,4.35
2023-03-07T18:48:41.290Z,5.20
2023-03-07T18:51:11.773Z,5.00
2023-03-07T18:53:39.599Z,4.95
2023-03-07T18:56:11.009Z,4.35
2023-03-07T18:58:38.079Z,5.50
2023-03-07T19:01:28.740Z,5.60
2023-03-07T19:03:57.705Z,5.03
2023-03-07T19:06:31.600Z,5.75
2023-03-07T19:08:58.444Z,7.72
2023-03-07T19:11:25.196Z,5.82
2023-03-07T19:13:51.932Z,4.15
2023-03-07T19:16:23.724Z,4.90
2023-03-07T19:18:51.757Z,4.65
2023-03-07T19:21:25.908Z,5.22
2023-03-07T19:23:54.581Z,5.13
2023-03-07T19:26:23.205Z,5.18
2023-03-07T19:28:53.064Z,5.70
2023-03-07T19:31:25.589Z,5.88
2023-03-07T19:33:53.100Z,6.28
2023-03-07T19:36:27.181Z,7.13
2023-03-07T19:38:57.712Z,7.05
2023-03-07T19:41:27.196Z,6.85
2023-03-07T19:43:56.464Z,7.32
2023-03-07T19:46:23.793Z,6.95
2023-03-07T19:48:50.704Z,5.88
2023-03-07T19:51:20.942Z,6.13
2023-03-07T19:53:47.740Z,7.85
2023-03-07T19:56:27.685Z,4.63
2023-03-07T19:58:55.108Z,5.82
2023-03-07T20:01:23.775Z,4.90
2023-03-07T20:03:51.609Z,4.88
2023-03-07T20:06:26.603Z,4.00
2023-03-07T20:08:55.148Z,4.97
2023-03-07T20:11:27.203Z,4.18
2023-03-07T20:13:56.559Z,6.70
2023-03-07T20:16:27.171Z,4.55
2023-03-07T20:18:54.363Z,4.55
2023-03-07T20:21:26.274Z,5.20
2023-03-07T20:23:55.801Z,5.70
2023-03-07T20:26:32.437Z,5.13
2023-03-07T20:29:00.571Z,4.60
2023-03-07T20:31:28.533Z,3.90
2023-03-07T20:33:58.847Z,4.18
2023-03-07T20:36:32.052Z,10.02
2023-03-07T20:39:02.983Z,4.88
2023-03-07T20:41:32.402Z,3.75
2023-03-07T20:44:05.419Z,4.72
2023-03-07T20:46:33.152Z,4.93
2023-03-07T20:49:01.901Z,5.50
2023-03-07T20:51:32.044Z,4.38
2023-03-07T20:54:05.135Z,5.65
2023-03-07T20:56:34.293Z,4.68
2023-03-07T20:59:01.811Z,4.68
2023-03-07T21:01:33.751Z,4.07
2023-03-07T21:04:08.269Z,4.17
2023-03-07T21:06:40.682Z,4.90
2023-03-07T21:09:10.264Z,5.20
2023-03-07T21:11:40.454Z,4.07
2023-03-07T21:14:08.516Z,3.78
2023-03-07T21:16:35.405Z,5.85
2023-03-07T21:19:07.290Z,3.80
2023-03-07T21:21:35.904Z,4.18
2023-03-07T21:24:03.244Z,6.00
2023-03-07T21:26:34.211Z,4.47
2023-03-07T21:29:01.104Z,4.68
2023-03-07T21:31:31.587Z,6.38
2023-03-07T21:34:02.067Z,6.28
2023-03-07T21:36:31.565Z,4.20
2023-03-07T21:38:59.326Z,5.05
2023-03-07T21:41:26.656Z,4.07
2023-03-07T21:43:55.372Z,4.35
2023-03-07T21:46:23.089Z,4.18
2023-03-07T21:48:50.282Z,4.93
2023-03-07T21:51:17.699Z,5.35
2023-03-07T21:53:44.456Z,5.32
2023-03-07T21:56:19.333Z,4.72
2023-03-07T21:58:50.409Z,4.90
2023-03-07T22:01:22.132Z,4.32
2023-03-07T22:03:53.209Z,3.70
2023-03-07T22:06:20.286Z,5.03
2023-03-07T22:08:47.041Z,4.70
2023-03-07T22:11:14.595Z,4.63
2023-03-07T22:13:42.347Z,5.57
2023-03-07T22:16:15.572Z,4.50
2023-03-07T22:18:42.589Z,4.72
2023-03-07T22:21:14.178Z,4.32
2023-03-07T22:23:42.276Z,5.22
2023-03-07T22:26:11.942Z,4.38
2023-03-07T22:28:40.664Z,5.13
2023-03-07T22:31:12.892Z,4.43
2023-03-07T22:33:40.789Z,5.10
2023-03-07T22:36:10.876Z,5.80
2023-03-07T22:38:37.811Z,4.93
2023-03-07T22:41:08.626Z,5.53
2023-03-07T22:43:36.300Z,4.80
2023-03-07T22:46:04.157Z,4.32
2023-03-07T22:48:31.653Z,4.03
2023-03-07T22:50:58.784Z,5.22
2023-03-07T22:53:31.059Z,4.75
2023-03-07T22:56:01.584Z,4.60
2023-03-07T22:58:29.843Z,4.05
2023-03-07T23:00:56.705Z,5.55
2023-03-07T23:03:23.654Z,4.20
2023-03-07T23:05:50.582Z,4.85
2023-03-07T23:08:17.427Z,5.18
2023-03-07T23:10:44.228Z,5.03
2023-03-07T23:13:10.967Z,4.60
2023-03-07T23:15:41.481Z,4.00
2023-03-07T23:18:09.045Z,5.68
2023-03-07T23:20:39.042Z,4.28
2023-03-07T23:23:06.357Z,4.30
2023-03-07T23:25:33.772Z,4.22
2023-03-07T23:28:00.575Z,3.90
2023-03-07T23:30:27.384Z,3.97
2023-03-07T23:32:55.188Z,3.53
2023-03-07T23:35:21.978Z,5.22
2023-03-07T23:37:48.768Z,5.45
2023-03-07T23:40:15.582Z,4.07
2023-03-07T23:42:42.321Z,4.03
2023-03-07T23:45:09.718Z,4.80
2023-03-07T23:47:36.487Z,5.93
2023-03-07T23:50:03.709Z,3.95
2023-03-07T23:52:30.496Z,4.03
2023-03-07T23:54:57.307Z,4.80
2023-03-07T23:57:24.294Z,3.92
2023-03-07T23:59:51.080Z,4.88
